createdAt,value
2018-05-25T00:02:03.424Z,18.23
2018-05-25T00:04:29.830Z,14.77
2018-05-25T00:06:56.247Z,19.37
2018-05-25T00:09:24.144Z,20.53
2018-05-25T00:11:50.641Z,21.97
2018-05-25T00:14:17.091Z,22.53
2018-05-25T00:16:43.471Z,19.83
2018-05-25T00:19:09.884Z,20.63
2018-05-25T00:21:36.310Z,19.33
2018-05-25T00:24:03.424Z,21.40
2018-05-25T00:26:29.826Z,17.33
2018-05-25T00:28:56.213Z,20.70
2018-05-25T00:31:22.626Z,21.67
2018-05-25T00:33:49.022Z,21.20
2018-05-25T00:36:15.390Z,23.63
2018-05-25T00:38:54.542Z,19.00
2018-05-25T00:41:21.664Z,21.37
2018-05-25T00:43:48.067Z,20.73
2018-05-25T00:46:14.495Z,20.40
2018-05-25T00:48:40.896Z,26.50
2018-05-25T00:51:08.033Z,23.07
2018-05-25T00:53:35.164Z,17.03
2018-05-25T00:56:01.574Z,16.00
2018-05-25T00:58:27.972Z,16.00
2018-05-25T01:00:54.370Z,16.17
2018-05-25T01:03:20.781Z,16.70
2018-05-25T01:05:47.165Z,17.73
2018-05-25T01:08:13.579Z,14.90
2018-05-25T01:10:40.721Z,17.10
2018-05-25T01:13:07.234Z,18.60
2018-05-25T01:15:33.648Z,20.07
2018-05-25T01:18:00.814Z,16.67
2018-05-25T01:20:27.255Z,14.80
2018-05-25T01:22:53.654Z,22.00
2018-05-25T01:25:20.056Z,17.40
2018-05-25T01:27:47.191Z,16.30
2018-05-25T01:30:13.571Z,16.90
2018-05-25T01:32:39.966Z,18.03
2018-05-25T01:35:07.141Z,19.53
2018-05-25T01:37:33.559Z,18.33
2018-05-25T01:40:00.769Z,18.60
2018-05-25T01:42:27.161Z,18.73
2018-05-25T01:44:53.555Z,16.33
2018-05-25T01:47:19.980Z,25.20
2018-05-25T01:49:46.388Z,18.10
2018-05-25T01:52:12.823Z,18.43
2018-05-25T01:54:39.223Z,18.77
2018-05-25T01:57:05.623Z,20.77
2018-05-25T01:59:32.016Z,22.83
2018-05-25T02:01:58.421Z,19.27
2018-05-25T02:04:24.822Z,17.60
2018-05-25T02:06:51.994Z,17.70
2018-05-25T02:09:19.119Z,17.27
2018-05-25T02:11:45.513Z,24.67
2018-05-25T02:14:11.965Z,23.03
2018-05-25T02:16:38.355Z,17.50
2018-05-25T02:19:04.781Z,19.33
2018-05-25T02:21:31.174Z,20.93
2018-05-25T02:23:57.570Z,15.67
2018-05-25T02:26:23.977Z,20.50
2018-05-25T02:28:50.385Z,19.30
2018-05-25T02:31:16.768Z,23.20
2018-05-25T02:33:43.172Z,17.30
2018-05-25T02:36:09.573Z,19.50
2018-05-25T02:38:36.794Z,19.97
2018-05-25T02:41:03.171Z,17.00
2018-05-25T02:43:30.306Z,19.40
2018-05-25T02:45:56.718Z,22.87
2018-05-25T02:48:23.136Z,22.50
2018-05-25T02:50:49.542Z,19.33
2018-05-25T02:53:15.998Z,18.57
2018-05-25T02:55:42.384Z,24.13
2018-05-25T02:58:09.500Z,22.27
2018-05-25T03:00:36.675Z,19.20
2018-05-25T03:03:03.067Z,22.53
2018-05-25T03:05:29.434Z,23.97
2018-05-25T03:07:55.831Z,26.57
2018-05-25T03:10:22.240Z,23.90
2018-05-25T03:12:48.651Z,19.50
2018-05-25T03:15:15.060Z,29.37
2018-05-25T03:17:41.473Z,24.60
2018-05-25T03:20:07.888Z,23.63
2018-05-25T03:22:34.287Z,25.27
2018-05-25T03:25:01.427Z,28.53
2018-05-25T03:27:28.559Z,28.87
2018-05-25T03:29:54.957Z,24.53
2018-05-25T03:32:21.357Z,27.57
2018-05-25T03:34:47.765Z,22.47
2018-05-25T03:37:14.227Z,23.87
2018-05-25T03:39:40.630Z,25.20
2018-05-25T03:42:07.027Z,27.43
2018-05-25T03:44:33.430Z,30.57
2018-05-25T03:46:59.833Z,33.70
2018-05-25T03:49:26.225Z,33.10
2018-05-25T03:51:52.642Z,24.90
2018-05-25T03:54:19.040Z,25.33
2018-05-25T03:56:46.158Z,23.60
2018-05-25T03:59:24.946Z,32.17
2018-05-25T04:01:57.405Z,27.63
2018-05-25T04:04:23.792Z,28.80
2018-05-25T04:06:50.207Z,26.60
2018-05-25T04:09:16.596Z,32.03
2018-05-25T04:11:43.013Z,33.83
2018-05-25T04:14:10.149Z,30.70
2018-05-25T04:16:37.298Z,32.03
2018-05-25T04:19:03.710Z,36.20
2018-05-25T04:21:30.122Z,43.80
2018-05-25T04:23:56.507Z,41.73
2018-05-25T04:26:23.622Z,37.13
2018-05-25T04:28:50.020Z,34.33
2018-05-25T04:31:16.434Z,34.37
2018-05-25T04:33:43.560Z,34.27
2018-05-25T04:36:10.706Z,34.10
2018-05-25T04:38:37.175Z,41.23
2018-05-25T04:41:03.599Z,34.73
2018-05-25T04:43:30.726Z,34.13
2018-05-25T04:45:57.111Z,28.23
2018-05-25T04:48:23.541Z,36.77
2018-05-25T04:50:49.989Z,30.70
2018-05-25T04:53:16.392Z,31.57
2018-05-25T04:55:42.788Z,42.93
2018-05-25T04:58:09.188Z,31.97
2018-05-25T05:00:35.593Z,39.07
2018-05-25T05:03:01.998Z,41.10
2018-05-25T05:05:29.126Z,35.17
2018-05-25T05:07:55.526Z,33.10
2018-05-25T05:10:21.912Z,36.10
2018-05-25T05:12:49.067Z,34.03
2018-05-25T05:15:16.285Z,38.10
2018-05-25T05:17:42.668Z,38.30
2018-05-25T05:20:09.091Z,31.27
2018-05-25T05:22:36.216Z,36.10
2018-05-25T05:25:02.639Z,27.67
2018-05-25T05:27:29.043Z,33.77
2018-05-25T05:29:55.434Z,40.30
2018-05-25T05:32:22.571Z,32.43
2018-05-25T05:34:49.000Z,34.53
2018-05-25T05:37:16.192Z,35.63
2018-05-25T05:39:42.577Z,41.23
2018-05-25T05:42:08.973Z,32.83
2018-05-25T05:44:35.447Z,36.30
2018-05-25T05:47:02.616Z,40.13
2018-05-25T05:49:29.787Z,34.03
2018-05-25T05:51:56.186Z,36.10
2018-05-25T05:54:22.553Z,39.33
2018-05-25T05:56:48.943Z,37.00
2018-05-25T05:59:15.359Z,32.30
2018-05-25T06:01:41.753Z,34.87
2018-05-25T06:04:08.156Z,29.03
2018-05-25T06:06:35.325Z,27.30
2018-05-25T06:09:01.771Z,27.10
2018-05-25T06:11:28.173Z,27.53
2018-05-25T06:13:55.322Z,26.57
2018-05-25T06:16:22.550Z,25.97
2018-05-25T06:18:48.976Z,26.00
2018-05-25T06:21:15.395Z,25.87
2018-05-25T06:23:41.807Z,31.60
2018-05-25T06:26:08.284Z,23.97
2018-05-25T06:28:34.675Z,21.27
2018-05-25T06:31:01.100Z,25.67
2018-05-25T06:33:27.530Z,23.80
2018-05-25T06:35:53.938Z,27.53
2018-05-25T06:38:21.097Z,20.53
2018-05-25T06:40:47.557Z,23.73
2018-05-25T06:43:13.977Z,21.47
2018-05-25T06:45:40.379Z,30.80
2018-05-25T06:48:07.527Z,18.40
2018-05-25T06:50:33.919Z,24.93
2018-05-25T06:53:00.391Z,21.93
2018-05-25T06:55:26.829Z,25.57
2018-05-25T06:57:54.007Z,21.13
2018-05-25T07:00:20.419Z,20.57
2018-05-25T07:02:47.559Z,17.97
2018-05-25T07:05:14.776Z,22.53
2018-05-25T07:07:42.004Z,21.27
2018-05-25T07:10:08.437Z,24.73
2018-05-25T07:12:34.852Z,20.20
2018-05-25T07:15:01.271Z,21.93
2018-05-25T07:17:28.406Z,21.53
2018-05-25T07:19:54.786Z,24.13
2018-05-25T07:22:21.175Z,20.67
2018-05-25T07:24:47.575Z,20.43
2018-05-25T07:27:15.455Z,32.30
2018-05-25T07:29:41.879Z,25.47
2018-05-25T07:32:08.270Z,26.57
2018-05-25T07:34:34.724Z,24.47
2018-05-25T07:37:01.159Z,25.37
2018-05-25T07:39:27.575Z,26.57
2018-05-25T07:41:53.983Z,19.80
2018-05-25T07:44:20.386Z,21.80
2018-05-25T07:46:46.794Z,21.23
2018-05-25T07:49:13.202Z,18.33
2018-05-25T07:51:39.602Z,20.67
2018-05-25T07:54:06.101Z,23.17
2018-05-25T07:56:32.505Z,19.50
2018-05-25T07:58:58.890Z,17.70
2018-05-25T08:01:25.287Z,19.13
2018-05-25T08:03:51.678Z,19.80
2018-05-25T08:06:18.958Z,19.07
2018-05-25T08:08:45.395Z,17.70
2018-05-25T08:11:11.787Z,17.37
2018-05-25T08:13:39.027Z,21.50
2018-05-25T08:16:05.416Z,22.17
2018-05-25T08:18:31.821Z,17.47
2018-05-25T08:20:58.417Z,20.60
2018-05-25T08:23:25.781Z,14.43
2018-05-25T08:25:52.183Z,20.83
2018-05-25T08:28:18.813Z,16.93
2018-05-25T08:30:45.222Z,22.30
2018-05-25T08:33:11.618Z,25.00
2018-05-25T08:35:38.067Z,21.17
2018-05-25T08:38:04.524Z,17.70
2018-05-25T08:40:30.922Z,21.47
2018-05-25T08:42:58.076Z,20.47
2018-05-25T08:45:24.475Z,22.43
2018-05-25T08:47:50.925Z,18.30
2018-05-25T08:50:17.322Z,20.53
2018-05-25T08:52:43.747Z,18.00
2018-05-25T08:55:10.240Z,20.00
2018-05-25T08:57:36.638Z,24.30
2018-05-25T09:00:03.103Z,27.87
2018-05-25T09:02:29.514Z,19.63
2018-05-25T09:04:55.945Z,21.87
2018-05-25T09:07:22.336Z,19.47
2018-05-25T09:09:48.754Z,19.40
2018-05-25T09:12:15.884Z,18.30
2018-05-25T09:14:42.294Z,24.73
2018-05-25T09:17:08.713Z,20.47
2018-05-25T09:19:35.097Z,21.33
2018-05-25T09:22:01.483Z,17.53
2018-05-25T09:24:27.876Z,18.43
2018-05-25T09:26:55.012Z,31.37
2018-05-25T09:29:22.148Z,19.53
2018-05-25T09:31:48.550Z,21.70
2018-05-25T09:34:14.943Z,18.43
2018-05-25T09:36:41.335Z,17.43
2018-05-25T09:39:07.772Z,18.50
2018-05-25T09:41:34.227Z,22.20
2018-05-25T09:44:01.374Z,25.70
2018-05-25T09:46:28.524Z,19.60
2018-05-25T09:48:55.687Z,19.90
2018-05-25T09:51:22.082Z,20.23
2018-05-25T09:53:48.488Z,22.63
2018-05-25T09:56:14.890Z,28.67
2018-05-25T09:58:41.345Z,23.63
2018-05-25T10:01:07.768Z,23.93
2018-05-25T10:03:34.196Z,22.30
2018-05-25T10:06:00.606Z,22.57
2018-05-25T10:08:27.791Z,20.07
2018-05-25T10:10:55.134Z,19.50
2018-05-25T10:13:21.554Z,21.17
2018-05-25T10:15:48.709Z,20.60
2018-05-25T10:18:15.102Z,22.43
2018-05-25T10:20:41.497Z,21.27
2018-05-25T10:23:07.938Z,19.43
2018-05-25T10:25:34.342Z,21.83
2018-05-25T10:28:00.726Z,19.13
2018-05-25T10:30:27.129Z,19.70
2018-05-25T10:32:53.547Z,22.27
2018-05-25T10:35:19.983Z,19.33
2018-05-25T10:37:46.397Z,25.07
2018-05-25T10:40:12.839Z,19.90
2018-05-25T10:42:39.230Z,20.20
2018-05-25T10:45:07.134Z,21.30
2018-05-25T10:47:33.528Z,20.57
2018-05-25T10:49:59.910Z,22.67
2018-05-25T10:52:26.321Z,21.13
2018-05-25T10:54:53.504Z,18.97
2018-05-25T10:57:20.480Z,21.60
2018-05-25T10:59:46.876Z,17.60
2018-05-25T11:02:13.277Z,26.20
2018-05-25T11:04:40.408Z,19.43
2018-05-25T11:07:08.295Z,20.40
2018-05-25T11:09:35.484Z,15.60
2018-05-25T11:12:01.886Z,24.93
2018-05-25T11:14:29.055Z,18.53
2018-05-25T11:16:55.490Z,14.67
2018-05-25T11:19:21.968Z,20.07
2018-05-25T11:21:48.396Z,17.97
2018-05-25T11:24:14.792Z,18.20
2018-05-25T11:26:41.202Z,18.40
2018-05-25T11:29:08.335Z,17.97
2018-05-25T11:31:34.764Z,19.53
2018-05-25T11:34:01.174Z,19.40
2018-05-25T11:36:27.589Z,17.77
2018-05-25T11:38:53.974Z,22.53
2018-05-25T11:41:21.119Z,23.67
2018-05-25T11:43:48.274Z,16.93
2018-05-25T11:46:15.425Z,17.93
2018-05-25T11:48:42.696Z,23.23
2018-05-25T11:51:09.143Z,15.80
2018-05-25T11:53:36.251Z,14.03
2018-05-25T11:56:03.414Z,15.83
2018-05-25T11:58:30.549Z,14.43
2018-05-25T12:00:56.987Z,14.27
2018-05-25T12:03:24.142Z,15.13
2018-05-25T12:05:51.356Z,12.53
2018-05-25T12:08:17.753Z,16.73
2018-05-25T12:10:44.225Z,19.57
2018-05-25T12:13:11.722Z,16.33
2018-05-25T12:15:38.884Z,21.63
2018-05-25T12:18:05.297Z,23.33
2018-05-25T12:20:32.458Z,21.50
2018-05-25T12:22:59.607Z,18.00
2018-05-25T12:25:26.776Z,22.43
2018-05-25T12:27:54.222Z,18.57
2018-05-25T12:30:20.665Z,12.60
2018-05-25T12:32:47.065Z,15.10
2018-05-25T12:35:14.429Z,15.37
2018-05-25T12:37:41.635Z,13.90
2018-05-25T12:40:08.031Z,14.40
2018-05-25T12:42:34.438Z,17.43
2018-05-25T12:45:10.765Z,14.30
2018-05-25T12:47:37.195Z,14.40
2018-05-25T12:50:03.637Z,18.57
2018-05-25T12:52:30.612Z,18.00
2018-05-25T12:54:57.780Z,16.80
2018-05-25T12:57:25.050Z,13.63
2018-05-25T12:59:52.386Z,19.87
2018-05-25T13:02:19.597Z,13.27
2018-05-25T13:04:45.990Z,13.50
2018-05-25T13:07:12.410Z,13.40
2018-05-25T13:09:39.579Z,12.47
2018-05-25T13:12:06.081Z,13.40
2018-05-25T13:14:33.252Z,9.27
2018-05-25T13:17:00.413Z,14.50
2018-05-25T13:19:26.824Z,10.50
2018-05-25T13:21:53.992Z,15.67
2018-05-25T13:24:20.454Z,9.30
2018-05-25T13:26:46.945Z,9.20
2018-05-25T13:29:13.354Z,9.30
2018-05-25T13:31:39.762Z,12.33
2018-05-25T13:34:06.706Z,9.17
2018-05-25T13:36:33.156Z,11.90
2018-05-25T13:38:59.568Z,9.37
2018-05-25T13:41:25.999Z,9.73
2018-05-25T13:43:52.411Z,12.20
2018-05-25T13:46:18.854Z,12.97
2018-05-25T13:48:46.012Z,8.83
2018-05-25T13:51:12.433Z,10.50
2018-05-25T13:53:38.824Z,9.43
2018-05-25T13:56:05.999Z,11.40
2018-05-25T13:58:32.670Z,9.33
2018-05-25T14:00:59.089Z,10.90
2018-05-25T14:03:25.508Z,14.23
2018-05-25T14:05:51.928Z,10.03
2018-05-25T14:08:20.047Z,21.63
2018-05-25T14:10:46.447Z,11.53
2018-05-25T14:13:12.851Z,8.30
2018-05-25T14:15:39.259Z,15.37
2018-05-25T14:18:05.697Z,12.43
2018-05-25T14:20:32.116Z,8.70
2018-05-25T14:22:58.537Z,12.30
2018-05-25T14:25:24.988Z,13.30
2018-05-25T14:27:51.377Z,12.97
2018-05-25T14:30:17.762Z,14.03
2018-05-25T14:32:44.174Z,11.53
2018-05-25T14:35:10.579Z,12.37
2018-05-25T14:37:43.846Z,9.83
2018-05-25T14:40:10.997Z,10.50
2018-05-25T14:42:38.293Z,9.87
2018-05-25T14:45:04.736Z,10.00
2018-05-25T14:47:31.151Z,11.80
2018-05-25T14:49:57.541Z,9.60
2018-05-25T14:52:23.934Z,10.60
2018-05-25T14:54:50.340Z,11.80
2018-05-25T14:57:16.748Z,9.93
2018-05-25T14:59:43.882Z,10.60
2018-05-25T15:02:11.759Z,11.80
2018-05-25T15:04:38.933Z,15.93
2018-05-25T15:07:05.314Z,11.60
2018-05-25T15:09:31.720Z,9.93
2018-05-25T15:11:58.118Z,12.20
2018-05-25T15:14:25.287Z,9.83
2018-05-25T15:16:52.394Z,11.20
2018-05-25T15:19:18.779Z,11.80
2018-05-25T15:21:45.336Z,14.90
2018-05-25T15:24:11.706Z,11.70
2018-05-25T15:26:38.846Z,13.30
2018-05-25T15:29:05.257Z,13.60
2018-05-25T15:31:31.658Z,16.90
2018-05-25T15:33:58.036Z,23.10
2018-05-25T15:36:24.451Z,12.93
2018-05-25T15:38:50.839Z,13.73
2018-05-25T15:41:17.974Z,16.17
2018-05-25T15:43:45.114Z,13.27
2018-05-25T15:46:11.515Z,13.37
2018-05-25T15:48:38.028Z,11.93
2018-05-25T15:51:04.435Z,11.73
2018-05-25T15:53:31.570Z,16.90
2018-05-25T15:55:59.450Z,12.77
2018-05-25T15:58:26.623Z,15.90
2018-05-25T16:00:53.034Z,14.23
2018-05-25T16:03:20.202Z,15.50
2018-05-25T16:05:46.675Z,14.37
2018-05-25T16:08:13.070Z,16.17
2018-05-25T16:10:39.498Z,14.93
2018-05-25T16:13:05.907Z,13.03
2018-05-25T16:15:33.043Z,17.43
2018-05-25T16:17:59.449Z,13.40
2018-05-25T16:20:25.880Z,16.50
2018-05-25T16:22:52.274Z,13.60
2018-05-25T16:25:19.433Z,14.87
2018-05-25T16:27:45.905Z,16.53
2018-05-25T16:30:12.295Z,15.73
2018-05-25T16:32:38.681Z,14.97
2018-05-25T16:35:05.097Z,23.30
2018-05-25T16:37:31.499Z,14.53
2018-05-25T16:39:57.885Z,13.83
2018-05-25T16:42:24.271Z,15.17
2018-05-25T16:44:50.651Z,15.47
2018-05-25T16:47:17.120Z,13.23
2018-05-25T16:49:44.260Z,13.90
2018-05-25T16:52:11.412Z,15.13
2018-05-25T16:54:38.564Z,17.47
2018-05-25T16:57:05.695Z,14.13
2018-05-25T16:59:33.026Z,14.60
2018-05-25T17:01:59.427Z,14.03
2018-05-25T17:04:25.840Z,13.60
2018-05-25T17:06:52.959Z,16.13
2018-05-25T17:09:19.350Z,20.60
2018-05-25T17:11:45.726Z,18.00
2018-05-25T17:14:12.126Z,34.73
2018-05-25T17:16:38.513Z,14.90
2018-05-25T17:19:05.761Z,17.20
2018-05-25T17:21:32.931Z,14.77
2018-05-25T17:23:59.327Z,15.67
2018-05-25T17:26:25.707Z,14.83
2018-05-25T17:28:52.141Z,13.67
2018-05-25T17:31:18.571Z,16.27
2018-05-25T17:33:45.023Z,22.53
2018-05-25T17:36:11.478Z,15.17
2018-05-25T17:38:37.858Z,15.90
2018-05-25T17:41:04.266Z,15.50
2018-05-25T17:43:31.444Z,14.80
2018-05-25T17:45:57.906Z,13.20
2018-05-25T17:48:24.319Z,14.80
2018-05-25T17:50:50.721Z,14.80
2018-05-25T17:53:17.869Z,19.87
2018-05-25T17:55:45.040Z,16.47
2018-05-25T17:58:12.175Z,17.80
2018-05-25T18:00:39.343Z,16.50
2018-05-25T18:03:05.867Z,13.10
2018-05-25T18:05:32.271Z,16.23
2018-05-25T18:07:58.647Z,14.33
2018-05-25T18:10:25.310Z,16.87
2018-05-25T18:12:52.465Z,14.90
2018-05-25T18:15:18.843Z,12.97
2018-05-25T18:17:45.995Z,15.07
2018-05-25T18:20:12.414Z,15.27
2018-05-25T18:22:38.864Z,16.67
2018-05-25T18:25:06.029Z,16.00
2018-05-25T18:27:32.650Z,17.87
2018-05-25T18:29:59.801Z,16.47
2018-05-25T18:32:27.020Z,18.77
2018-05-25T18:34:54.946Z,15.10
2018-05-25T18:37:21.365Z,15.63
2018-05-25T18:39:48.508Z,20.20
2018-05-25T18:42:15.714Z,18.37
2018-05-25T18:44:42.120Z,19.37
2018-05-25T18:47:08.573Z,15.53
2018-05-25T18:49:35.010Z,15.50
2018-05-25T18:52:01.454Z,19.67
2018-05-25T18:54:32.031Z,16.87
2018-05-25T18:56:58.429Z,19.90
2018-05-25T18:59:24.874Z,17.90
2018-05-25T19:01:51.273Z,20.43
2018-05-25T19:04:17.668Z,16.20
2018-05-25T19:06:44.080Z,20.07
2018-05-25T19:09:11.241Z,18.13
2018-05-25T19:11:38.442Z,18.20
2018-05-25T19:14:04.890Z,17.13
2018-05-25T19:16:31.276Z,15.50
2018-05-25T19:18:57.677Z,20.30
2018-05-25T19:21:24.067Z,22.90
2018-05-25T19:23:50.458Z,25.53
2018-05-25T19:26:16.863Z,15.90
2018-05-25T19:28:44.730Z,21.57
2018-05-25T19:31:11.864Z,17.30
2018-05-25T19:33:38.318Z,26.83
2018-05-25T19:36:05.623Z,18.90
2018-05-25T19:38:32.055Z,25.50
2018-05-25T19:40:58.467Z,19.90
2018-05-25T19:43:24.904Z,20.37
2018-05-25T19:45:52.189Z,19.40
2018-05-25T19:48:19.419Z,25.57
2018-05-25T19:50:46.566Z,18.80
2018-05-25T19:53:12.969Z,17.33
2018-05-25T19:55:40.109Z,26.23
2018-05-25T19:58:07.466Z,22.53
2018-05-25T20:00:34.604Z,17.90
2018-05-25T20:03:01.021Z,19.13
2018-05-25T20:05:27.470Z,20.80
2018-05-25T20:07:54.770Z,21.20
2018-05-25T20:10:21.220Z,20.67
2018-05-25T20:12:47.611Z,17.20
2018-05-25T20:15:14.745Z,27.00
2018-05-25T20:17:41.140Z,21.03
2018-05-25T20:20:07.526Z,19.90
2018-05-25T20:22:34.818Z,16.23
2018-05-25T20:25:14.372Z,35.07
2018-05-25T20:27:40.751Z,21.73
2018-05-25T20:30:07.949Z,21.23
2018-05-25T20:32:34.360Z,18.93
2018-05-25T20:35:00.857Z,16.43
2018-05-25T20:37:27.295Z,17.73
2018-05-25T20:39:53.697Z,18.70
2018-05-25T20:42:20.162Z,13.70
2018-05-25T20:44:47.363Z,18.57
2018-05-25T20:47:13.758Z,20.73
2018-05-25T20:49:40.881Z,17.00
2018-05-25T20:52:07.310Z,25.87
2018-05-25T20:54:33.721Z,20.17
2018-05-25T20:57:00.147Z,19.27
2018-05-25T20:59:26.543Z,17.60
2018-05-25T21:01:53.740Z,25.43
2018-05-25T21:04:20.152Z,16.50
2018-05-25T21:06:46.613Z,18.13
2018-05-25T21:09:13.012Z,25.80
2018-05-25T21:11:39.446Z,23.30
2018-05-25T21:14:05.838Z,30.83
2018-05-25T21:16:32.215Z,21.13
2018-05-25T21:18:58.620Z,20.67
2018-05-25T21:21:25.767Z,33.93
2018-05-25T21:23:52.942Z,16.43
2018-05-25T21:26:19.331Z,20.93
2018-05-25T21:28:45.732Z,20.87
2018-05-25T21:31:12.160Z,22.93
2018-05-25T21:33:38.563Z,20.07
2018-05-25T21:36:05.000Z,24.50
2018-05-25T21:38:31.405Z,26.13
2018-05-25T21:40:58.546Z,19.87
2018-05-25T21:43:25.699Z,28.17
2018-05-25T21:45:52.291Z,20.90
2018-05-25T21:48:18.701Z,18.40
2018-05-25T21:50:45.154Z,30.47
2018-05-25T21:53:11.561Z,14.53
2018-05-25T21:55:37.947Z,16.83
2018-05-25T21:58:04.347Z,13.60
2018-05-25T22:00:30.776Z,21.13
2018-05-25T22:02:57.219Z,18.13
2018-05-25T22:05:23.610Z,23.47
2018-05-25T22:07:50.789Z,22.03
2018-05-25T22:10:17.216Z,25.00
2018-05-25T22:12:43.650Z,25.57
2018-05-25T22:15:10.062Z,18.47
2018-05-25T22:17:37.209Z,19.30
2018-05-25T22:20:04.360Z,37.17
2018-05-25T22:22:31.509Z,44.10
2018-05-25T22:24:58.644Z,26.00
2018-05-25T22:27:25.042Z,15.50
2018-05-25T22:29:51.443Z,17.00
2018-05-25T22:32:17.880Z,20.23
2018-05-25T22:34:44.307Z,26.83
2018-05-25T22:37:10.707Z,19.47
2018-05-25T22:39:37.102Z,18.60
2018-05-25T22:42:03.300Z,17.20
2018-05-25T22:44:41.931Z,23.03
2018-05-25T22:47:20.639Z,19.00
2018-05-25T22:49:59.203Z,17.97
2018-05-25T22:52:31.471Z,22.33
2018-05-25T22:54:57.891Z,26.37
2018-05-25T22:57:24.328Z,22.27
2018-05-25T22:59:50.770Z,35.30
2018-05-25T23:02:17.176Z,21.67
2018-05-25T23:04:43.587Z,58.87
2018-05-25T23:07:09.980Z,15.10
2018-05-25T23:09:36.396Z,29.83
2018-05-25T23:12:02.833Z,39.20
2018-05-25T23:14:29.259Z,24.57
2018-05-25T23:16:56.420Z,24.37
2018-05-25T23:19:22.832Z,36.20
2018-05-25T23:21:49.988Z,21.03
2018-05-25T23:24:16.377Z,31.83
2018-05-25T23:26:43.524Z,50.77
2018-05-25T23:29:10.712Z,65.07
2018-05-25T23:31:37.097Z,93.90
2018-05-25T23:34:03.508Z,19.50
2018-05-25T23:36:29.906Z,21.40
2018-05-25T23:38:56.321Z,28.00
2018-05-25T23:41:22.709Z,18.60
2018-05-25T23:43:49.108Z,27.63
2018-05-25T23:46:15.517Z,38.70
2018-05-25T23:48:41.936Z,67.23
2018-05-25T23:51:09.074Z,49.27
2018-05-25T23:53:36.224Z,15.13
2018-05-25T23:56:03.343Z,69.47
2018-05-25T23:58:30.499Z,24.13
